Time;durP1;ratioP1;P1;durP2;ratioP2;P2;SDS_P1;SDS_P2;PMS_P1;PMS_P2;Temp;Humidity;BMP_temperature;BMP_pressure;BME280_temperature;BME280_humidity;BME280_pressure;Samples;Min_cycle;Max_cycle;Signal;HPM_P1;HPM_P2
2023/06/27 00:00:04;;;;;;;0.00;0.00;;;15.40;99.90;;;;;;1722253;28;20857;-72
2023/06/27 00:00:54;;;;;;;0.00;0.00;;;15.50;99.90;;;;;;1722888;28;20663;-72
2023/06/27 00:01:46;;;;;;;0.00;0.00;;;15.50;99.90;;;;;;1725044;28;20592;-72
2023/06/27 00:02:37;;;;;;;0.00;0.00;;;15.40;99.90;;;;;;1724661;28;20220;-72
2023/06/27 00:03:29;;;;;;;0.03;0.03;;;15.40;99.90;;;;;;1722944;28;20205;-72
2023/06/27 00:04:23;;;;;;;0.00;0.00;;;15.30;99.90;;;;;;1723205;28;20278;-72
2023/06/27 00:05:14;;;;;;;0.00;0.00;;;15.30;99.90;;;;;;1723082;28;20326;-72
2023/06/27 00:06:05;;;;;;;0.00;0.00;;;15.30;99.90;;;;;;1723989;28;20685;-72
2023/06/27 00:06:57;;;;;;;0.00;0.00;;;15.30;99.90;;;;;;1724996;28;20627;-72
2023/06/27 00:07:48;;;;;;;0.00;0.00;;;15.30;99.90;;;;;;1724426;28;20205;-72
2023/06/27 00:08:40;;;;;;;0.00;0.00;;;15.40;99.90;;;;;;1723070;28;20209;-72
2023/06/27 00:09:31;;;;;;;0.10;0.10;;;15.30;99.90;;;;;;1724746;28;20220;-72
2023/06/27 00:10:22;;;;;;;0.00;0.00;;;15.30;99.90;;;;;;1722617;28;20248;-72
2023/06/27 00:11:14;;;;;;;0.00;0.00;;;15.20;99.90;;;;;;1725299;28;20204;-72
2023/06/27 00:12:08;;;;;;;0.00;0.00;;;15.20;99.90;;;;;;1720473;28;20267;-72
2023/06/27 00:12:58;;;;;;;0.00;0.00;;;15.20;99.90;;;;;;1724639;28;20263;-72
2023/06/27 00:13:50;;;;;;;0.00;0.00;;;15.10;99.90;;;;;;1722852;28;20205;-72
2023/06/27 00:14:41;;;;;;;0.00;0.00;;;15.10;99.90;;;;;;1724520;28;20201;-72
2023/06/27 00:15:34;;;;;;;0.00;0.00;;;15.10;99.90;;;;;;1722342;28;20296;-72
2023/06/27 00:16:32;;;;;;;0.00;0.00;;;15.10;99.90;;;;;;1724769;28;20282;-72
2023/06/27 00:17:24;;;;;;;0.00;0.00;;;15.10;99.90;;;;;;1724530;28;20288;-72
2023/06/27 00:18:17;;;;;;;0.00;0.00;;;15.10;99.90;;;;;;1724664;28;20296;-72
2023/06/27 00:19:09;;;;;;;0.00;0.00;;;15.20;99.90;;;;;;1723622;28;20638;-72
2023/06/27 00:20:00;;;;;;;0.00;0.00;;;15.10;99.90;;;;;;1723835;28;20215;-70
2023/06/27 00:20:53;;;;;;;0.00;0.00;;;15.30;99.90;;;;;;1722579;28;20532;-72
2023/06/27 00:21:43;;;;;;;0.00;0.00;;;15.30;99.90;;;;;;1724543;28;20314;-72
2023/06/27 00:22:40;;;;;;;0.00;0.00;;;15.30;99.90;;;;;;1724327;28;20220;-72
2023/06/27 00:23:33;;;;;;;0.00;0.00;;;15.30;99.90;;;;;;1724958;28;20205;-72
2023/06/27 00:24:24;;;;;;;0.00;0.00;;;15.30;99.90;;;;;;1722842;28;20204;-72
2023/06/27 00:25:16;;;;;;;0.00;0.00;;;15.30;99.90;;;;;;1723042;28;20273;-72
2023/06/27 00:26:08;;;;;;;0.00;0.00;;;15.20;99.90;;;;;;1723016;28;20228;-72
2023/06/27 00:27:00;;;;;;;0.00;0.00;;;15.20;99.90;;;;;;1724738;28;20763;-72
2023/06/27 00:27:53;;;;;;;0.00;0.00;;;15.20;99.90;;;;;;1724773;28;20239;-72
2023/06/27 00:28:43;;;;;;;0.00;0.00;;;15.10;99.90;;;;;;1724531;28;20270;-73
2023/06/27 00:29:35;;;;;;;0.00;0.00;;;15.10;99.90;;;;;;1722099;28;20272;-72
2023/06/27 00:30:26;;;;;;;0.00;0.00;;;15.10;99.90;;;;;;1717727;28;20217;-72
2023/06/27 00:31:18;;;;;;;0.00;0.00;;;15.10;99.90;;;;;;1724819;28;20197;-72
2023/06/27 00:32:08;;;;;;;0.00;0.00;;;15.10;99.90;;;;;;1725109;28;20582;-72
2023/06/27 00:33:00;;;;;;;0.00;0.00;;;15.00;99.90;;;;;;1724373;28;20543;-72
2023/06/27 00:33:51;;;;;;;0.00;0.00;;;15.00;99.90;;;;;;1724817;28;20336;-72
2023/06/27 00:34:42;;;;;;;0.00;0.00;;;15.00;99.90;;;;;;1721445;28;20216;-73
2023/06/27 00:35:33;;;;;;;0.00;0.00;;;14.90;99.90;;;;;;1722268;28;20295;-73
2023/06/27 00:36:25;;;;;;;0.00;0.00;;;14.90;99.90;;;;;;1724515;28;20211;-72
2023/06/27 00:37:16;;;;;;;0.00;0.00;;;14.90;99.90;;;;;;1724681;28;20208;-72
2023/06/27 00:38:08;;;;;;;0.00;0.00;;;14.90;99.90;;;;;;1725143;28;20201;-72
2023/06/27 00:38:58;;;;;;;0.00;0.00;;;14.90;99.90;;;;;;1722434;28;20216;-72
2023/06/27 00:39:50;;;;;;;0.00;0.00;;;14.90;99.90;;;;;;1722094;28;20205;-72
2023/06/27 00:40:40;;;;;;;0.00;0.00;;;14.90;99.90;;;;;;1722822;28;20236;-72
2023/06/27 00:41:32;;;;;;;0.00;0.00;;;14.90;99.90;;;;;;1724927;28;20200;-72
2023/06/27 00:42:26;;;;;;;0.00;0.00;;;14.90;99.90;;;;;;1724464;28;20205;-72
2023/06/27 00:43:18;;;;;;;0.00;0.00;;;14.90;99.90;;;;;;1724596;28;20204;-71
2023/06/27 00:44:09;;;;;;;0.00;0.00;;;14.80;99.90;;;;;;1724584;28;20731;-71
2023/06/27 00:45:03;;;;;;;0.00;0.00;;;14.80;99.90;;;;;;1724671;28;20647;-71
2023/06/27 00:45:53;;;;;;;0.00;0.00;;;14.80;99.90;;;;;;1722576;28;21087;-72
2023/06/27 00:46:49;;;;;;;0.00;0.00;;;14.90;99.90;;;;;;1724924;28;20584;-72
2023/06/27 00:47:39;;;;;;;0.00;0.00;;;14.80;99.90;;;;;;1724110;28;20781;-72
2023/06/27 00:48:32;;;;;;;0.00;0.00;;;14.80;99.90;;;;;;1722889;28;20606;-72
2023/06/27 00:49:23;;;;;;;0.00;0.00;;;14.80;99.90;;;;;;1724175;28;21055;-72
2023/06/27 00:50:15;;;;;;;0.00;0.00;;;14.80;99.90;;;;;;1725467;28;20625;-72
2023/06/27 00:51:07;;;;;;;0.00;0.00;;;14.80;99.90;;;;;;1722131;28;20541;-72
2023/06/27 00:51:59;;;;;;;0.00;0.00;;;14.80;99.90;;;;;;1724508;28;20291;-72
2023/06/27 00:52:51;;;;;;;0.00;0.00;;;14.80;99.90;;;;;;1724561;28;20243;-72
2023/06/27 00:53:42;;;;;;;0.00;0.00;;;14.80;99.90;;;;;;1724739;28;20231;-72
2023/06/27 00:54:33;;;;;;;0.00;0.00;;;14.80;99.90;;;;;;1724383;28;20262;-72
2023/06/27 00:55:25;;;;;;;0.00;0.00;;;14.70;99.90;;;;;;1722986;28;20208;-72
2023/06/27 00:56:16;;;;;;;0.00;0.00;;;14.70;99.90;;;;;;1724489;28;20460;-72
2023/06/27 00:57:08;;;;;;;0.00;0.00;;;14.80;99.90;;;;;;1720735;28;20206;-72
2023/06/27 00:58:01;;;;;;;0.00;0.00;;;14.70;99.90;;;;;;1724348;28;20277;-72
2023/06/27 00:58:54;;;;;;;0.00;0.00;;;14.70;99.90;;;;;;1722687;28;20219;-72
2023/06/27 00:59:45;;;;;;;0.00;0.00;;;14.70;99.90;;;;;;1721714;28;20205;-72
2023/06/27 01:00:38;;;;;;;0.00;0.00;;;14.70;99.90;;;;;;1723022;28;20290;-72
2023/06/27 01:01:29;;;;;;;0.00;0.00;;;14.70;99.90;;;;;;1722849;28;20254;-72
2023/06/27 01:02:23;;;;;;;0.00;0.00;;;14.60;99.90;;;;;;1723265;28;20575;-72
2023/06/27 01:03:14;;;;;;;0.00;0.00;;;14.60;99.90;;;;;;1725227;28;20209;-72
2023/06/27 01:04:06;;;;;;;0.00;0.00;;;14.60;99.90;;;;;;1723965;28;20212;-72
2023/06/27 01:04:57;;;;;;;0.00;0.00;;;14.60;99.90;;;;;;1721952;28;20204;-72
2023/06/27 01:05:49;;;;;;;0.00;0.00;;;14.60;99.90;;;;;;1722975;28;20232;-72
2023/06/27 01:06:49;;;;;;;0.00;0.00;;;14.60;99.90;;;;;;1721982;28;20235;-72
2023/06/27 01:07:45;;;;;;;0.00;0.00;;;14.60;99.90;;;;;;1724070;28;20664;-72
2023/06/27 01:08:41;;;;;;;0.00;0.00;;;14.50;99.90;;;;;;1722709;28;20231;-72
2023/06/27 01:09:36;;;;;;;0.00;0.00;;;14.50;99.90;;;;;;1724507;28;20201;-72
2023/06/27 01:10:34;;;;;;;0.00;0.00;;;14.50;99.90;;;;;;1722951;28;20220;-72
2023/06/27 01:11:30;;;;;;;0.00;0.00;;;14.50;99.90;;;;;;1723283;28;20232;-72
2023/06/27 01:12:27;;;;;;;0.00;0.00;;;14.50;99.90;;;;;;1721459;28;20213;-72
2023/06/27 01:13:27;;;;;;;0.00;0.00;;;14.50;99.90;;;;;;1724901;28;20496;-72
2023/06/27 01:14:18;;;;;;;0.00;0.00;;;14.50;99.90;;;;;;1723772;28;20726;-72
2023/06/27 01:15:10;;;;;;;0.00;0.00;;;14.50;99.90;;;;;;1723212;28;20883;-72
2023/06/27 01:16:01;;;;;;;0.00;0.00;;;14.40;99.90;;;;;;1722740;28;20541;-71
2023/06/27 01:16:53;;;;;;;0.00;0.00;;;14.40;99.90;;;;;;1724809;28;20478;-71
2023/06/27 01:17:45;;;;;;;0.10;0.10;;;14.40;99.90;;;;;;1724195;28;20208;-72
2023/06/27 01:18:40;;;;;;;0.00;0.00;;;14.40;99.90;;;;;;1724494;28;20727;-73
2023/06/27 01:19:33;;;;;;;0.00;0.00;;;14.40;99.90;;;;;;1723852;28;20219;-73
2023/06/27 01:20:25;;;;;;;0.00;0.00;;;14.40;99.90;;;;;;1722132;28;20257;-73
2023/06/27 01:21:19;;;;;;;0.00;0.00;;;14.40;99.90;;;;;;1724889;28;20200;-73
2023/06/27 01:22:19;;;;;;;0.00;0.00;;;14.30;99.90;;;;;;1720603;28;20340;-73
2023/06/27 01:23:16;;;;;;;0.00;0.00;;;14.30;99.90;;;;;;1723926;28;20270;-73
2023/06/27 01:24:10;;;;;;;0.00;0.00;;;14.30;99.90;;;;;;1724527;28;20618;-73
2023/06/27 01:25:07;;;;;;;0.00;0.00;;;14.30;99.90;;;;;;1721448;28;20211;-73
2023/06/27 01:26:03;;;;;;;0.00;0.00;;;14.30;99.90;;;;;;1721736;28;20243;-73
2023/06/27 01:26:54;;;;;;;0.00;0.00;;;14.30;99.90;;;;;;1718852;28;20212;-73
2023/06/27 01:27:45;;;;;;;0.00;0.00;;;14.30;99.90;;;;;;1724545;28;20204;-73
2023/06/27 01:28:36;;;;;;;0.00;0.00;;;14.30;99.90;;;;;;1724491;28;20449;-71
2023/06/27 01:29:29;;;;;;;0.00;0.00;;;14.30;99.90;;;;;;1724309;28;20652;-72
2023/06/27 01:30:19;;;;;;;0.00;0.00;;;14.30;99.90;;;;;;1724180;28;20209;-72
2023/06/27 01:31:18;;;;;;;0.00;0.00;;;14.30;99.90;;;;;;1724180;28;20232;-72
2023/06/27 01:32:15;;;;;;;0.00;0.00;;;14.30;99.90;;;;;;1722004;28;20661;-72
2023/06/27 01:33:15;;;;;;;0.00;0.00;;;14.20;99.90;;;;;;1725424;28;20800;-72
2023/06/27 01:34:13;;;;;;;0.00;0.00;;;14.20;99.90;;;;;;1725307;28;20216;-72
2023/06/27 01:35:12;;;;;;;0.00;0.00;;;14.20;99.90;;;;;;1726220;28;20623;-72
2023/06/27 01:36:09;;;;;;;0.00;0.00;;;14.20;99.90;;;;;;1723893;28;20244;-72
2023/06/27 01:37:06;;;;;;;0.00;0.00;;;14.10;99.90;;;;;;1725609;28;20235;-72
2023/06/27 01:38:02;;;;;;;0.00;0.00;;;14.20;99.90;;;;;;1725429;28;20212;-72
2023/06/27 01:38:59;;;;;;;0.00;0.00;;;14.10;99.90;;;;;;1725110;28;20607;-72
2023/06/27 01:40:02;;;;;;;0.00;0.00;;;14.10;99.90;;;;;;1722545;28;20213;-72
2023/06/27 01:40:55;;;;;;;0.00;0.00;;;14.10;99.90;;;;;;1723012;28;20240;-72
2023/06/27 01:41:51;;;;;;;0.00;0.00;;;14.10;99.90;;;;;;1725496;28;20601;-72
2023/06/27 01:42:44;;;;;;;0.00;0.00;;;14.00;99.90;;;;;;1725697;28;20493;-72
2023/06/27 01:43:36;;;;;;;0.00;0.00;;;14.10;99.90;;;;;;1724112;28;20204;-72
2023/06/27 01:44:28;;;;;;;0.00;0.00;;;14.10;99.90;;;;;;1724422;28;20528;-72
2023/06/27 01:45:20;;;;;;;0.00;0.00;;;14.10;99.90;;;;;;1724458;28;20632;-72
2023/06/27 01:46:12;;;;;;;0.00;0.00;;;14.00;99.90;;;;;;1724862;28;20258;-72
2023/06/27 01:47:04;;;;;;;0.00;0.00;;;14.00;99.90;;;;;;1725549;28;20645;-72
2023/06/27 01:47:57;;;;;;;0.00;0.00;;;14.00;99.90;;;;;;1725542;28;20543;-72
2023/06/27 01:48:50;;;;;;;0.00;0.00;;;14.00;99.90;;;;;;1721681;28;20212;-72
2023/06/27 01:49:42;;;;;;;0.00;0.00;;;14.00;99.90;;;;;;1725491;28;20208;-72
2023/06/27 01:50:34;;;;;;;0.00;0.00;;;13.90;99.90;;;;;;1724226;28;20270;-72
2023/06/27 01:51:26;;;;;;;0.00;0.00;;;13.90;99.90;;;;;;1725491;28;20288;-72
2023/06/27 01:52:19;;;;;;;0.00;0.00;;;13.90;99.90;;;;;;1725722;28;20265;-72
2023/06/27 01:53:10;;;;;;;0.00;0.00;;;13.90;99.90;;;;;;1726012;28;20318;-72
2023/06/27 01:54:01;;;;;;;0.00;0.00;;;13.90;99.90;;;;;;1725252;28;20687;-72
2023/06/27 01:54:54;;;;;;;0.00;0.00;;;13.90;99.90;;;;;;1725488;28;20613;-72
2023/06/27 01:55:45;;;;;;;0.00;0.00;;;13.90;99.90;;;;;;1723247;28;20354;-72
2023/06/27 01:56:37;;;;;;;0.00;0.00;;;13.90;99.90;;;;;;1723367;28;20292;-72
2023/06/27 01:57:28;;;;;;;0.00;0.00;;;13.90;99.90;;;;;;1723852;28;20710;-72
2023/06/27 01:58:19;;;;;;;0.00;0.00;;;13.90;99.90;;;;;;1725456;28;20598;-72
2023/06/27 01:59:10;;;;;;;0.00;0.00;;;13.90;99.90;;;;;;1724437;28;20207;-72
2023/06/27 02:00:06;;;;;;;0.00;0.00;;;13.90;99.90;;;;;;1725919;28;20474;-72
2023/06/27 02:00:57;;;;;;;0.00;0.00;;;14.00;99.90;;;;;;1722035;28;20582;-72
2023/06/27 02:01:49;;;;;;;0.00;0.00;;;14.00;99.90;;;;;;1725684;28;20227;-72
2023/06/27 02:02:39;;;;;;;0.00;0.00;;;14.00;99.90;;;;;;1725306;28;20626;-72
2023/06/27 02:03:31;;;;;;;0.00;0.00;;;13.90;99.90;;;;;;1725794;28;20448;-72
2023/06/27 02:04:22;;;;;;;0.00;0.00;;;13.90;99.90;;;;;;1725078;28;20642;-72
2023/06/27 02:05:13;;;;;;;0.00;0.00;;;13.90;99.90;;;;;;1726083;28;20544;-72
2023/06/27 02:06:04;;;;;;;0.00;0.00;;;13.90;99.90;;;;;;1724984;28;20613;-72
2023/06/27 02:06:56;;;;;;;0.00;0.00;;;13.90;99.90;;;;;;1721687;28;20582;-72
2023/06/27 02:07:47;;;;;;;0.00;0.00;;;13.80;99.90;;;;;;1725613;28;20215;-72
2023/06/27 02:08:38;;;;;;;0.00;0.00;;;13.90;99.90;;;;;;1725443;28;20228;-72
2023/06/27 02:09:29;;;;;;;0.00;0.00;;;13.80;99.90;;;;;;1724213;28;20901;-72
2023/06/27 02:10:22;;;;;;;0.00;0.00;;;13.80;99.90;;;;;;1723838;28;20538;-72
2023/06/27 02:11:12;;;;;;;0.00;0.00;;;13.80;99.90;;;;;;1725698;28;20567;-72
2023/06/27 02:12:05;;;;;;;0.00;0.00;;;13.80;99.90;;;;;;1725493;28;20220;-72
2023/06/27 02:12:56;;;;;;;0.00;0.00;;;13.80;99.90;;;;;;1725322;28;20646;-72
2023/06/27 02:13:47;;;;;;;0.00;0.00;;;13.80;99.90;;;;;;1725487;28;20667;-72
2023/06/27 02:14:38;;;;;;;0.00;0.00;;;13.90;99.90;;;;;;1725265;28;20211;-72
2023/06/27 02:15:30;;;;;;;0.00;0.00;;;13.80;99.90;;;;;;1723795;28;20212;-72
2023/06/27 02:16:20;;;;;;;0.00;0.00;;;13.80;99.90;;;;;;1725352;28;20202;-72
2023/06/27 02:17:12;;;;;;;0.00;0.00;;;13.80;99.90;;;;;;1722269;28;20266;-72
2023/06/27 02:18:04;;;;;;;0.00;0.00;;;13.80;99.90;;;;;;1725490;28;20287;-72
2023/06/27 02:18:55;;;;;;;0.00;0.00;;;13.80;99.90;;;;;;1724136;28;20582;-72
2023/06/27 02:19:46;;;;;;;0.00;0.00;;;13.80;99.90;;;;;;1725587;28;20205;-72
2023/06/27 02:20:38;;;;;;;0.00;0.00;;;13.80;99.90;;;;;;1723740;28;20259;-72
2023/06/27 02:21:28;;;;;;;0.00;0.00;;;13.80;99.90;;;;;;1725492;28;20208;-72
2023/06/27 02:22:20;;;;;;;0.00;0.00;;;13.80;99.90;;;;;;1712570;28;20280;-72
2023/06/27 02:23:10;;;;;;;0.00;0.00;;;13.90;99.90;;;;;;1711591;28;20217;-72
2023/06/27 02:24:02;;;;;;;0.00;0.00;;;13.90;99.90;;;;;;1710963;28;20671;-72
2023/06/27 02:24:53;;;;;;;0.00;0.00;;;13.80;99.90;;;;;;1712167;28;20214;-72
2023/06/27 02:25:46;;;;;;;0.00;0.00;;;13.80;99.90;;;;;;1710844;28;20530;-72
2023/06/27 02:26:37;;;;;;;0.00;0.00;;;13.80;99.90;;;;;;1710211;28;20213;-72
2023/06/27 02:27:28;;;;;;;0.00;0.00;;;13.80;99.90;;;;;;1710387;28;20208;-72
2023/06/27 02:28:19;;;;;;;0.00;0.00;;;13.70;99.90;;;;;;1712743;28;20681;-72
2023/06/27 02:29:11;;;;;;;0.00;0.00;;;13.80;99.90;;;;;;1710725;28;20382;-72
2023/06/27 02:30:03;;;;;;;0.00;0.00;;;13.80;99.90;;;;;;1713101;28;20217;-72
2023/06/27 02:30:54;;;;;;;0.00;0.00;;;13.80;99.90;;;;;;1710316;28;20316;-72
2023/06/27 02:31:45;;;;;;;0.00;0.00;;;13.80;99.90;;;;;;1712567;28;20301;-72
2023/06/27 02:32:36;;;;;;;0.00;0.00;;;13.80;99.90;;;;;;1711225;28;20206;-72
2023/06/27 02:33:27;;;;;;;0.00;0.00;;;13.80;99.90;;;;;;1711597;28;20248;-72
2023/06/27 02:34:19;;;;;;;0.00;0.00;;;13.80;99.90;;;;;;1712201;28;20215;-72
2023/06/27 02:35:09;;;;;;;0.00;0.00;;;13.80;99.90;;;;;;1712881;28;20229;-72
2023/06/27 02:36:01;;;;;;;0.00;0.00;;;13.80;99.90;;;;;;1709903;28;20289;-72
2023/06/27 02:36:52;;;;;;;0.00;0.00;;;13.80;99.90;;;;;;1712441;28;20633;-72
2023/06/27 02:37:44;;;;;;;0.00;0.00;;;13.80;99.90;;;;;;1712101;28;20601;-72
2023/06/27 02:38:34;;;;;;;0.00;0.00;;;13.80;99.90;;;;;;1711774;28;20464;-72
2023/06/27 02:39:26;;;;;;;0.00;0.00;;;13.90;99.90;;;;;;1712016;28;20209;-72
2023/06/27 02:40:17;;;;;;;0.00;0.00;;;14.00;99.90;;;;;;1712309;28;20221;-72
2023/06/27 02:41:10;;;;;;;0.00;0.00;;;13.90;99.90;;;;;;1710938;28;20244;-72
2023/06/27 02:42:00;;;;;;;0.00;0.00;;;14.00;99.90;;;;;;1711730;28;20278;-72
2023/06/27 02:42:52;;;;;;;0.00;0.00;;;14.00;99.90;;;;;;1711425;28;20279;-72
2023/06/27 02:43:42;;;;;;;0.00;0.00;;;14.00;99.90;;;;;;1712174;28;20305;-72
2023/06/27 02:44:34;;;;;;;0.00;0.00;;;14.00;99.90;;;;;;1708947;28;20684;-72
2023/06/27 02:45:25;;;;;;;0.00;0.00;;;14.00;99.90;;;;;;1710394;28;20289;-72
2023/06/27 02:46:16;;;;;;;0.00;0.00;;;13.90;99.90;;;;;;1712122;28;20201;-72
2023/06/27 02:47:07;;;;;;;0.00;0.00;;;13.90;99.90;;;;;;1707683;28;20221;-72
2023/06/27 02:47:59;;;;;;;0.00;0.00;;;13.90;99.90;;;;;;1710648;28;20202;-72
2023/06/27 02:48:49;;;;;;;0.00;0.00;;;13.80;99.90;;;;;;1710924;28;20205;-72
2023/06/27 02:49:42;;;;;;;0.00;0.00;;;13.80;99.90;;;;;;1712007;28;20200;-72
2023/06/27 02:50:32;;;;;;;0.00;0.00;;;13.80;99.90;;;;;;1710710;28;20321;-72
2023/06/27 02:51:23;;;;;;;0.00;0.00;;;13.80;99.90;;;;;;1712035;28;20612;-72
2023/06/27 02:52:15;;;;;;;0.00;0.00;;;13.80;99.90;;;;;;1712174;28;20461;-72
2023/06/27 02:53:05;;;;;;;0.00;0.00;;;13.80;99.90;;;;;;1712005;28;20599;-71
2023/06/27 02:53:57;;;;;;;0.00;0.00;;;13.80;99.90;;;;;;1710814;28;20605;-72
2023/06/27 02:54:48;;;;;;;0.00;0.00;;;13.80;99.90;;;;;;1710775;28;20679;-72
2023/06/27 02:55:40;;;;;;;0.00;0.00;;;13.70;99.90;;;;;;1710193;28;20236;-72
2023/06/27 02:56:32;;;;;;;0.00;0.00;;;13.70;99.90;;;;;;1711737;28;20306;-72
2023/06/27 02:57:23;;;;;;;0.00;0.00;;;13.70;99.90;;;;;;1711617;28;20230;-72
2023/06/27 02:58:14;;;;;;;0.00;0.00;;;13.70;99.90;;;;;;1711472;28;20336;-72
2023/06/27 02:59:06;;;;;;;0.00;0.00;;;13.70;99.90;;;;;;1710472;28;20217;-72
2023/06/27 02:59:56;;;;;;;0.00;0.00;;;13.70;99.90;;;;;;1710010;28;20519;-72
2023/06/27 03:00:48;;;;;;;0.00;0.00;;;13.70;99.90;;;;;;1709952;28;20276;-72
2023/06/27 03:01:39;;;;;;;0.00;0.00;;;13.70;99.90;;;;;;1709605;28;20263;-72
2023/06/27 03:02:30;;;;;;;0.10;0.10;;;13.70;99.90;;;;;;1711314;28;20272;-72
2023/06/27 03:03:21;;;;;;;0.00;0.00;;;13.70;99.90;;;;;;1709208;28;20212;-72
2023/06/27 03:04:12;;;;;;;0.00;0.00;;;13.70;99.90;;;;;;1710612;28;20213;-72
2023/06/27 03:05:04;;;;;;;0.00;0.00;;;13.70;99.90;;;;;;1712188;28;20217;-72
2023/06/27 03:05:55;;;;;;;0.00;0.00;;;13.70;99.90;;;;;;1710621;28;20246;-72
2023/06/27 03:06:46;;;;;;;0.00;0.00;;;13.80;99.90;;;;;;1711836;28;20216;-72
2023/06/27 03:07:38;;;;;;;0.00;0.00;;;13.70;99.90;;;;;;1711575;28;20200;-72
2023/06/27 03:08:28;;;;;;;0.00;0.00;;;13.80;99.90;;;;;;1710974;28;20591;-72
2023/06/27 03:09:20;;;;;;;0.00;0.00;;;13.80;99.90;;;;;;1711595;28;20279;-73
2023/06/27 03:10:11;;;;;;;0.00;0.00;;;13.80;99.90;;;;;;1711961;28;20235;-72
2023/06/27 03:11:02;;;;;;;0.00;0.00;;;13.80;99.90;;;;;;1709775;28;20315;-73
2023/06/27 03:11:54;;;;;;;0.00;0.00;;;13.80;99.90;;;;;;1707983;28;20280;-72
2023/06/27 03:12:46;;;;;;;0.00;0.00;;;13.80;99.90;;;;;;1711726;28;20272;-72
2023/06/27 03:13:37;;;;;;;0.00;0.00;;;13.80;99.90;;;;;;1711998;28;20229;-72
2023/06/27 03:14:29;;;;;;;0.00;0.00;;;13.80;99.90;;;;;;1710943;28;20517;-73
2023/06/27 03:15:19;;;;;;;0.00;0.00;;;13.80;99.90;;;;;;1709006;28;20205;-72
2023/06/27 03:16:11;;;;;;;0.00;0.00;;;13.80;99.90;;;;;;1711773;28;21247;-72
2023/06/27 03:17:02;;;;;;;0.00;0.00;;;13.80;99.90;;;;;;1711510;28;20216;-72
2023/06/27 03:17:54;;;;;;;0.00;0.00;;;13.80;99.90;;;;;;1711809;28;20714;-72
2023/06/27 03:18:44;;;;;;;0.00;0.00;;;13.80;99.90;;;;;;1711894;28;20619;-72
2023/06/27 03:19:36;;;;;;;0.00;0.00;;;13.80;99.90;;;;;;1711098;28;20287;-72
2023/06/27 03:20:27;;;;;;;0.00;0.00;;;13.80;99.90;;;;;;1705424;28;20217;-73
2023/06/27 03:21:19;;;;;;;0.00;0.00;;;13.80;99.90;;;;;;1711881;28;20201;-73
2023/06/27 03:22:09;;;;;;;0.00;0.00;;;13.80;99.90;;;;;;1722107;28;20276;-73
2023/06/27 03:23:01;;;;;;;0.00;0.00;;;13.80;99.90;;;;;;1725139;28;20212;-73
2023/06/27 03:23:52;;;;;;;0.00;0.00;;;13.80;99.90;;;;;;1724998;28;20224;-73
2023/06/27 03:24:43;;;;;;;0.00;0.00;;;13.80;99.90;;;;;;1722868;28;20218;-73
2023/06/27 03:25:34;;;;;;;0.00;0.00;;;13.70;99.90;;;;;;1723490;28;20207;-72
2023/06/27 03:26:27;;;;;;;0.00;0.00;;;13.70;99.90;;;;;;1724805;28;20278;-72
2023/06/27 03:27:20;;;;;;;0.00;0.00;;;13.70;99.90;;;;;;1725370;28;20208;-72
2023/06/27 03:28:11;;;;;;;0.00;0.00;;;13.70;99.90;;;;;;1725147;28;20228;-72
2023/06/27 03:29:02;;;;;;;0.00;0.00;;;13.60;99.90;;;;;;1724905;28;20822;-72
2023/06/27 03:29:54;;;;;;;0.00;0.00;;;13.60;99.90;;;;;;1725019;28;20665;-72
2023/06/27 03:30:45;;;;;;;0.00;0.00;;;13.60;99.90;;;;;;1723440;28;20487;-72
2023/06/27 03:31:36;;;;;;;0.00;0.00;;;13.60;99.90;;;;;;1723458;28;20192;-72
2023/06/27 03:32:27;;;;;;;0.00;0.00;;;13.60;99.90;;;;;;1722151;28;20208;-72
2023/06/27 03:33:18;;;;;;;0.00;0.00;;;13.60;99.90;;;;;;1725200;28;20203;-72
2023/06/27 03:34:09;;;;;;;0.00;0.00;;;13.60;99.90;;;;;;1723449;28;20666;-72
2023/06/27 03:35:02;;;;;;;0.00;0.00;;;13.60;99.90;;;;;;1725302;28;20535;-72
2023/06/27 03:35:53;;;;;;;0.00;0.00;;;13.70;99.90;;;;;;1722786;28;20242;-72
2023/06/27 03:36:44;;;;;;;0.00;0.00;;;13.70;99.90;;;;;;1725161;28;20294;-72
2023/06/27 03:37:35;;;;;;;0.00;0.00;;;13.80;99.90;;;;;;1724127;28;20512;-72
2023/06/27 03:38:27;;;;;;;0.00;0.00;;;13.80;99.90;;;;;;1724980;28;20282;-72
2023/06/27 03:39:18;;;;;;;0.00;0.00;;;13.90;99.90;;;;;;1724565;28;20473;-72
2023/06/27 03:40:10;;;;;;;0.00;0.00;;;13.80;99.90;;;;;;1725550;28;20485;-72
2023/06/27 03:41:01;;;;;;;0.00;0.00;;;13.90;99.90;;;;;;1722914;28;20267;-72
2023/06/27 03:41:52;;;;;;;0.00;0.00;;;13.90;99.90;;;;;;1721466;28;20204;-72
2023/06/27 03:42:44;;;;;;;0.00;0.00;;;13.90;99.90;;;;;;1723899;28;20219;-72
2023/06/27 03:43:36;;;;;;;0.00;0.00;;;13.90;99.90;;;;;;1725123;28;20252;-72
2023/06/27 03:44:28;;;;;;;0.00;0.00;;;14.10;99.90;;;;;;1724442;28;20206;-72
2023/06/27 03:45:19;;;;;;;0.00;0.00;;;14.10;99.90;;;;;;1724931;28;20639;-73
2023/06/27 03:46:12;;;;;;;0.00;0.00;;;14.10;99.90;;;;;;1723756;28;20359;-73
2023/06/27 03:47:04;;;;;;;0.00;0.00;;;14.10;99.90;;;;;;1721399;28;20216;-72
2023/06/27 03:47:55;;;;;;;0.00;0.00;;;14.10;99.90;;;;;;1723945;28;20285;-72
2023/06/27 03:48:47;;;;;;;0.00;0.00;;;14.10;99.90;;;;;;1723677;28;20214;-72
2023/06/27 03:49:37;;;;;;;0.00;0.00;;;14.10;99.90;;;;;;1723197;28;20207;-72
2023/06/27 03:50:29;;;;;;;0.00;0.00;;;14.10;99.90;;;;;;1722896;28;20210;-72
2023/06/27 03:51:20;;;;;;;0.00;0.00;;;14.10;99.90;;;;;;1724149;28;20209;-72
2023/06/27 03:52:11;;;;;;;0.00;0.00;;;14.10;99.90;;;;;;1721309;28;20212;-72
2023/06/27 03:53:02;;;;;;;0.00;0.00;;;14.00;99.90;;;;;;1724521;28;20696;-72
2023/06/27 03:53:54;;;;;;;0.00;0.00;;;14.10;99.90;;;;;;1723785;28;20675;-72
2023/06/27 03:54:44;;;;;;;0.00;0.00;;;14.00;99.90;;;;;;1724381;28;20214;-72
2023/06/27 03:55:38;;;;;;;0.00;0.00;;;14.00;99.90;;;;;;1723576;28;20263;-72
2023/06/27 03:56:28;;;;;;;0.00;0.00;;;14.00;99.90;;;;;;1724254;28;20202;-72
2023/06/27 03:57:20;;;;;;;0.00;0.00;;;14.20;99.90;;;;;;1722173;28;20283;-72
2023/06/27 03:58:12;;;;;;;0.00;0.00;;;14.10;99.90;;;;;;1724338;28;20220;-72
2023/06/27 03:59:03;;;;;;;0.00;0.00;;;14.10;99.90;;;;;;1724492;28;20209;-72
2023/06/27 03:59:54;;;;;;;0.00;0.00;;;14.10;99.90;;;;;;1723436;28;20209;-73
2023/06/27 04:00:46;;;;;;;0.00;0.00;;;14.10;99.90;;;;;;1721553;28;20235;-73
2023/06/27 04:01:39;;;;;;;0.00;0.00;;;14.10;99.90;;;;;;1724915;28;20207;-72
2023/06/27 04:02:30;;;;;;;0.00;0.00;;;14.10;99.90;;;;;;1722764;28;20656;-72
2023/06/27 04:03:21;;;;;;;0.00;0.00;;;14.20;99.90;;;;;;1725303;28;20272;-72
2023/06/27 04:04:13;;;;;;;0.00;0.00;;;14.20;99.90;;;;;;1724362;28;20215;-72
2023/06/27 04:05:04;;;;;;;0.00;0.00;;;14.20;99.90;;;;;;1725289;28;20336;-72
2023/06/27 04:05:55;;;;;;;0.00;0.00;;;14.20;99.90;;;;;;1723479;28;20236;-72
2023/06/27 04:06:46;;;;;;;0.00;0.00;;;14.20;99.90;;;;;;1725352;28;20277;-72
2023/06/27 04:07:40;;;;;;;0.00;0.00;;;14.30;99.90;;;;;;1724454;28;20283;-72
2023/06/27 04:08:31;;;;;;;0.00;0.00;;;14.20;99.90;;;;;;1724901;28;20208;-72
2023/06/27 04:09:23;;;;;;;0.00;0.00;;;14.30;99.90;;;;;;1724728;28;20207;-72
2023/06/27 04:10:13;;;;;;;0.00;0.00;;;14.50;99.90;;;;;;1724579;28;20601;-72
2023/06/27 04:11:05;;;;;;;0.00;0.00;;;14.40;99.90;;;;;;1723701;28;20234;-72
2023/06/27 04:11:58;;;;;;;0.00;0.00;;;14.40;99.90;;;;;;1724640;28;20292;-72
2023/06/27 04:12:50;;;;;;;0.00;0.00;;;14.40;99.90;;;;;;1724274;28;20219;-72
2023/06/27 04:13:42;;;;;;;0.00;0.00;;;14.40;99.90;;;;;;1724847;28;20574;-72
2023/06/27 04:14:33;;;;;;;0.00;0.00;;;14.40;99.90;;;;;;1723417;28;20223;-72
2023/06/27 04:15:24;;;;;;;0.00;0.00;;;14.50;99.90;;;;;;1723431;28;20716;-72
2023/06/27 04:16:16;;;;;;;0.00;0.00;;;14.40;99.90;;;;;;1724951;28;20212;-72
2023/06/27 04:17:06;;;;;;;0.00;0.00;;;14.40;99.90;;;;;;1721275;28;20239;-72
2023/06/27 04:17:58;;;;;;;0.00;0.00;;;14.50;99.90;;;;;;1724741;28;20274;-72
2023/06/27 04:18:48;;;;;;;0.00;0.00;;;14.50;99.90;;;;;;1724071;28;20721;-72
2023/06/27 04:19:40;;;;;;;0.00;0.00;;;14.50;99.90;;;;;;1723148;28;20590;-72
2023/06/27 04:20:31;;;;;;;0.00;0.00;;;14.60;99.90;;;;;;1722472;28;20527;-72
2023/06/27 04:21:23;;;;;;;0.00;0.00;;;14.60;99.90;;;;;;1724629;28;20547;-72
2023/06/27 04:22:13;;;;;;;0.00;0.00;;;14.70;99.90;;;;;;1724386;28;20244;-72
2023/06/27 04:23:05;;;;;;;0.00;0.00;;;14.70;99.90;;;;;;1724273;28;20277;-72
2023/06/27 04:23:56;;;;;;;0.00;0.00;;;14.80;99.90;;;;;;1724755;28;20220;-72
2023/06/27 04:24:47;;;;;;;0.00;0.00;;;14.90;99.90;;;;;;1724729;28;20212;-72
2023/06/27 04:25:43;;;;;;;0.00;0.00;;;15.00;99.90;;;;;;1721910;28;20490;-72
2023/06/27 04:26:35;;;;;;;0.00;0.00;;;15.10;99.90;;;;;;1724701;28;20698;-72
2023/06/27 04:27:25;;;;;;;0.00;0.00;;;15.20;99.90;;;;;;1724741;28;20216;-72
2023/06/27 04:28:17;;;;;;;0.00;0.00;;;15.30;99.90;;;;;;1724748;28;20212;-72
2023/06/27 04:29:09;;;;;;;0.00;0.00;;;15.30;99.90;;;;;;1724426;28;20605;-72
2023/06/27 04:30:04;;;;;;;0.00;0.00;;;15.30;99.90;;;;;;1725046;28;20298;-72
2023/06/27 04:30:55;;;;;;;0.00;0.00;;;15.30;99.90;;;;;;1720711;28;20233;-72